sensor_id;sensor_type;location;lat;lon;timestamp;P1;durP1;ratioP1;P2;durP2;ratioP2
2756;SDS011;1386;50.862;6.494;2024-03-17T06:15:27;4.90;;;4.50;;
2756;SDS011;1386;50.862;6.494;2024-03-17T06:17:55;6.40;;;4.97;;
2756;SDS011;1386;50.862;6.494;2024-03-17T06:20:23;5.77;;;5.27;;
2756;SDS011;1386;50.862;6.494;2024-03-17T06:22:52;5.53;;;4.30;;
2756;SDS011;1386;50.862;6.494;2024-03-17T06:25:18;7.03;;;5.07;;
2756;SDS011;1386;50.862;6.494;2024-03-17T06:27:46;6.87;;;4.97;;
2756;SDS011;1386;50.862;6.494;2024-03-17T06:30:13;7.00;;;4.67;;
2756;SDS011;1386;50.862;6.494;2024-03-17T06:32:41;4.60;;;4.20;;
2756;SDS011;1386;50.862;6.494;2024-03-17T06:35:10;4.50;;;4.10;;
2756;SDS011;1386;50.862;6.494;2024-03-17T06:37:40;4.80;;;4.40;;
2756;SDS011;1386;50.862;6.494;2024-03-17T06:40:07;4.77;;;4.30;;
2756;SDS011;1386;50.862;6.494;2024-03-17T06:42:38;4.80;;;4.40;;
2756;SDS011;1386;50.862;6.494;2024-03-17T06:45:05;5.37;;;4.60;;
2756;SDS011;1386;50.862;6.494;2024-03-17T06:47:33;5.30;;;4.70;;
2756;SDS011;1386;50.862;6.494;2024-03-17T06:50:01;9.10;;;4.60;;
2756;SDS011;1386;50.862;6.494;2024-03-17T06:52:28;4.20;;;3.80;;
2756;SDS011;1386;50.862;6.494;2024-03-17T06:54:56;4.90;;;4.40;;
2756;SDS011;1386;50.862;6.494;2024-03-17T06:57:23;6.33;;;4.60;;
2756;SDS011;1386;50.862;6.494;2024-03-17T06:59:50;4.80;;;4.10;;
2756;SDS011;1386;50.862;6.494;2024-03-17T07:02:16;4.50;;;4.10;;
2756;SDS011;1386;50.862;6.494;2024-03-17T07:04:44;6.27;;;5.27;;
2756;SDS011;1386;50.862;6.494;2024-03-17T07:07:13;6.43;;;4.40;;
2756;SDS011;1386;50.862;6.494;2024-03-17T07:09:40;4.50;;;4.07;;
2756;SDS011;1386;50.862;6.494;2024-03-17T07:12:08;5.57;;;4.60;;
2756;SDS011;1386;50.862;6.494;2024-03-17T07:14:36;4.30;;;3.73;;
2756;SDS011;1386;50.862;6.494;2024-03-17T07:17:03;5.50;;;4.43;;
2756;SDS011;1386;50.862;6.494;2024-03-17T07:19:30;5.13;;;4.57;;
2756;SDS011;1386;50.862;6.494;2024-03-17T07:21:57;4.70;;;3.80;;
2756;SDS011;1386;50.862;6.494;2024-03-17T07:24:26;7.60;;;4.80;;
2756;SDS011;1386;50.862;6.494;2024-03-17T07:26:52;4.83;;;4.13;;
2756;SDS011;1386;50.862;6.494;2024-03-17T07:29:19;5.37;;;4.93;;
2756;SDS011;1386;50.862;6.494;2024-03-17T07:31:47;6.23;;;4.53;;
2756;SDS011;1386;50.862;6.494;2024-03-17T07:34:13;5.50;;;4.93;;
2756;SDS011;1386;50.862;6.494;2024-03-17T07:36:40;9.07;;;4.90;;
2756;SDS011;1386;50.862;6.494;2024-03-17T07:39:07;5.23;;;4.60;;
2756;SDS011;1386;50.862;6.494;2024-03-17T07:41:35;5.20;;;4.63;;
2756;SDS011;1386;50.862;6.494;2024-03-17T07:44:02;6.00;;;4.50;;
2756;SDS011;1386;50.862;6.494;2024-03-17T07:46:31;5.70;;;5.20;;
2756;SDS011;1386;50.862;6.494;2024-03-17T07:48:58;6.20;;;4.93;;
2756;SDS011;1386;50.862;6.494;2024-03-17T07:51:25;4.87;;;4.47;;
2756;SDS011;1386;50.862;6.494;2024-03-17T07:53:52;4.97;;;4.30;;
2756;SDS011;1386;50.862;6.494;2024-03-17T07:56:18;5.50;;;4.43;;
2756;SDS011;1386;50.862;6.494;2024-03-17T07:58:47;8.77;;;4.43;;
2756;SDS011;1386;50.862;6.494;2024-03-17T08:01:15;6.07;;;3.87;;
2756;SDS011;1386;50.862;6.494;2024-03-17T08:03:44;6.50;;;4.10;;
2756;SDS011;1386;50.862;6.494;2024-03-17T08:06:11;4.97;;;4.47;;
2756;SDS011;1386;50.862;6.494;2024-03-17T08:08:38;6.40;;;4.60;;
2756;SDS011;1386;50.862;6.494;2024-03-17T08:11:05;6.30;;;4.03;;
2756;SDS011;1386;50.862;6.494;2024-03-17T10:17:20;6.17;;;4.93;;
2756;SDS011;1386;50.862;6.494;2024-03-17T10:20:03;5.43;;;4.33;;
2756;SDS011;1386;50.862;6.494;2024-03-17T10:22:38;5.33;;;4.60;;
2756;SDS011;1386;50.862;6.494;2024-03-17T10:25:05;6.43;;;4.07;;
2756;SDS011;1386;50.862;6.494;2024-03-17T10:27:42;5.63;;;4.20;;
2756;SDS011;1386;50.862;6.494;2024-03-17T10:30:13;5.17;;;4.67;;
2756;SDS011;1386;50.862;6.494;2024-03-17T10:32:46;6.47;;;4.90;;
2756;SDS011;1386;50.862;6.494;2024-03-17T10:35:27;5.00;;;4.50;;
2756;SDS011;1386;50.862;6.494;2024-03-17T10:37:59;4.67;;;4.00;;
2756;SDS011;1386;50.862;6.494;2024-03-17T10:40:28;5.50;;;4.90;;
2756;SDS011;1386;50.862;6.494;2024-03-17T10:42:56;7.23;;;5.53;;
2756;SDS011;1386;50.862;6.494;2024-03-17T10:45:24;5.90;;;4.77;;
2756;SDS011;1386;50.862;6.494;2024-03-17T10:47:59;6.20;;;5.20;;
2756;SDS011;1386;50.862;6.494;2024-03-17T10:50:26;6.27;;;5.27;;
2756;SDS011;1386;50.862;6.494;2024-03-17T10:52:58;6.00;;;5.30;;
2756;SDS011;1386;50.862;6.494;2024-03-17T10:55:31;5.87;;;4.60;;
2756;SDS011;1386;50.862;6.494;2024-03-17T10:58:06;5.90;;;4.87;;
2756;SDS011;1386;50.862;6.494;2024-03-17T11:00:39;6.13;;;4.60;;
2756;SDS011;1386;50.862;6.494;2024-03-17T11:03:13;6.60;;;4.90;;
2756;SDS011;1386;50.862;6.494;2024-03-17T11:05:41;5.77;;;4.70;;
2756;SDS011;1386;50.862;6.494;2024-03-17T11:08:09;5.70;;;5.17;;
2756;SDS011;1386;50.862;6.494;2024-03-17T11:10:48;9.27;;;6.17;;
2756;SDS011;1386;50.862;6.494;2024-03-17T11:13:24;8.90;;;5.63;;
2756;SDS011;1386;50.862;6.494;2024-03-17T11:15:52;8.63;;;5.67;;
2756;SDS011;1386;50.862;6.494;2024-03-17T11:18:35;7.53;;;5.77;;
2756;SDS011;1386;50.862;6.494;2024-03-17T11:21:06;7.67;;;4.80;;
2756;SDS011;1386;50.862;6.494;2024-03-17T11:23:54;5.70;;;5.10;;
2756;SDS011;1386;50.862;6.494;2024-03-17T11:26:26;6.80;;;5.70;;
2756;SDS011;1386;50.862;6.494;2024-03-17T11:28:54;4.87;;;4.33;;
2756;SDS011;1386;50.862;6.494;2024-03-17T11:31:31;4.80;;;4.30;;
2756;SDS011;1386;50.862;6.494;2024-03-17T11:34:00;7.03;;;4.90;;
2756;SDS011;1386;50.862;6.494;2024-03-17T11:36:35;7.63;;;5.40;;
2756;SDS011;1386;50.862;6.494;2024-03-17T11:39:05;7.57;;;5.53;;
2756;SDS011;1386;50.862;6.494;2024-03-17T11:41:38;9.20;;;5.80;;
2756;SDS011;1386;50.862;6.494;2024-03-17T11:44:13;8.57;;;6.77;;
2756;SDS011;1386;50.862;6.494;2024-03-17T11:46:39;7.60;;;5.60;;
2756;SDS011;1386;50.862;6.494;2024-03-17T11:49:09;8.20;;;5.17;;
2756;SDS011;1386;50.862;6.494;2024-03-17T11:51:42;6.00;;;4.60;;
2756;SDS011;1386;50.862;6.494;2024-03-17T11:54:09;7.53;;;5.10;;
2756;SDS011;1386;50.862;6.494;2024-03-17T11:56:41;4.97;;;4.27;;
2756;SDS011;1386;50.862;6.494;2024-03-17T11:59:08;5.07;;;4.57;;
2756;SDS011;1386;50.862;6.494;2024-03-17T12:01:34;4.77;;;4.30;;
2756;SDS011;1386;50.862;6.494;2024-03-17T12:04:03;6.17;;;3.80;;
2756;SDS011;1386;50.862;6.494;2024-03-17T12:06:32;7.37;;;5.70;;
2756;SDS011;1386;50.862;6.494;2024-03-17T12:09:08;6.27;;;5.53;;
2756;SDS011;1386;50.862;6.494;2024-03-17T12:11:36;8.63;;;6.27;;
2756;SDS011;1386;50.862;6.494;2024-03-17T12:14:14;5.80;;;5.10;;
2756;SDS011;1386;50.862;6.494;2024-03-17T12:16:51;5.90;;;4.70;;
2756;SDS011;1386;50.862;6.494;2024-03-17T12:19:19;6.20;;;4.53;;
2756;SDS011;1386;50.862;6.494;2024-03-17T12:21:49;7.00;;;4.73;;
2756;SDS011;1386;50.862;6.494;2024-03-17T12:24:19;6.57;;;4.23;;
2756;SDS011;1386;50.862;6.494;2024-03-17T12:26:48;5.03;;;4.37;;
2756;SDS011;1386;50.862;6.494;2024-03-17T12:32:01;5.33;;;4.83;;
2756;SDS011;1386;50.862;6.494;2024-03-17T12:34:31;6.43;;;5.00;;
2756;SDS011;1386;50.862;6.494;2024-03-17T12:37:05;6.70;;;4.70;;
2756;SDS011;1386;50.862;6.494;2024-03-17T12:39:58;5.30;;;3.70;;
2756;SDS011;1386;50.862;6.494;2024-03-17T12:42:34;5.10;;;4.40;;
2756;SDS011;1386;50.862;6.494;2024-03-17T12:45:09;5.43;;;4.90;;
2756;SDS011;1386;50.862;6.494;2024-03-17T12:47:36;7.20;;;5.37;;
2756;SDS011;1386;50.862;6.494;2024-03-17T12:50:08;4.63;;;4.20;;
2756;SDS011;1386;50.862;6.494;2024-03-17T12:52:51;6.83;;;5.07;;
2756;SDS011;1386;50.862;6.494;2024-03-17T12:55:21;5.10;;;4.13;;
2756;SDS011;1386;50.862;6.494;2024-03-17T12:58:07;6.13;;;4.30;;
2756;SDS011;1386;50.862;6.494;2024-03-17T13:01:02;4.20;;;3.80;;
2756;SDS011;1386;50.862;6.494;2024-03-17T13:03:30;7.77;;;5.10;;
2756;SDS011;1386;50.862;6.494;2024-03-17T13:05:59;6.33;;;5.73;;
2756;SDS011;1386;50.862;6.494;2024-03-17T13:08:29;4.43;;;3.90;;
2756;SDS011;1386;50.862;6.494;2024-03-17T13:10:56;5.77;;;4.40;;
2756;SDS011;1386;50.862;6.494;2024-03-17T13:13:23;6.23;;;4.20;;
2756;SDS011;1386;50.862;6.494;2024-03-17T13:15:51;7.23;;;4.90;;
2756;SDS011;1386;50.862;6.494;2024-03-17T13:18:18;8.07;;;5.30;;
2756;SDS011;1386;50.862;6.494;2024-03-17T13:20:46;7.50;;;5.17;;
2756;SDS011;1386;50.862;6.494;2024-03-17T13:23:14;5.57;;;4.67;;
2756;SDS011;1386;50.862;6.494;2024-03-17T13:25:43;7.53;;;4.80;;
2756;SDS011;1386;50.862;6.494;2024-03-17T13:28:10;11.00;;;6.77;;
2756;SDS011;1386;50.862;6.494;2024-03-17T13:30:37;10.70;;;5.73;;
2756;SDS011;1386;50.862;6.494;2024-03-17T13:33:05;10.53;;;5.80;;
2756;SDS011;1386;50.862;6.494;2024-03-17T13:35:35;11.23;;;7.13;;
2756;SDS011;1386;50.862;6.494;2024-03-17T13:38:04;8.70;;;6.70;;
2756;SDS011;1386;50.862;6.494;2024-03-17T13:40:32;11.67;;;6.90;;
2756;SDS011;1386;50.862;6.494;2024-03-17T13:43:01;7.50;;;5.50;;
2756;SDS011;1386;50.862;6.494;2024-03-17T13:45:31;10.10;;;6.67;;
2756;SDS011;1386;50.862;6.494;2024-03-17T13:48:05;12.20;;;6.97;;
2756;SDS011;1386;50.862;6.494;2024-03-17T13:50:35;8.40;;;5.30;;
2756;SDS011;1386;50.862;6.494;2024-03-17T13:53:03;8.87;;;5.60;;
2756;SDS011;1386;50.862;6.494;2024-03-17T13:55:30;12.00;;;7.23;;
2756;SDS011;1386;50.862;6.494;2024-03-17T13:57:58;11.03;;;6.20;;
2756;SDS011;1386;50.862;6.494;2024-03-17T14:00:27;9.07;;;6.33;;
2756;SDS011;1386;50.862;6.494;2024-03-17T14:02:56;8.33;;;6.00;;
2756;SDS011;1386;50.862;6.494;2024-03-17T14:05:24;7.50;;;5.53;;
2756;SDS011;1386;50.862;6.494;2024-03-17T14:07:52;8.00;;;4.90;;
2756;SDS011;1386;50.862;6.494;2024-03-17T14:10:21;6.50;;;4.57;;
2756;SDS011;1386;50.862;6.494;2024-03-17T14:12:49;9.47;;;4.93;;
2756;SDS011;1386;50.862;6.494;2024-03-17T14:15:16;8.20;;;4.57;;
2756;SDS011;1386;50.862;6.494;2024-03-17T14:17:45;7.57;;;4.60;;
2756;SDS011;1386;50.862;6.494;2024-03-17T14:20:15;7.47;;;5.20;;
2756;SDS011;1386;50.862;6.494;2024-03-17T14:22:43;6.70;;;4.63;;
2756;SDS011;1386;50.862;6.494;2024-03-17T14:25:14;8.57;;;4.33;;
2756;SDS011;1386;50.862;6.494;2024-03-17T14:27:43;9.70;;;6.27;;
2756;SDS011;1386;50.862;6.494;2024-03-17T14:30:12;7.43;;;4.67;;
2756;SDS011;1386;50.862;6.494;2024-03-17T14:32:42;5.00;;;4.40;;
2756;SDS011;1386;50.862;6.494;2024-03-17T14:35:12;5.83;;;5.20;;
2756;SDS011;1386;50.862;6.494;2024-03-17T14:37:40;6.03;;;4.50;;
2756;SDS011;1386;50.862;6.494;2024-03-17T14:40:08;5.90;;;4.30;;
2756;SDS011;1386;50.862;6.494;2024-03-17T14:42:41;5.80;;;4.97;;
2756;SDS011;1386;50.862;6.494;2024-03-17T14:45:09;4.53;;;4.13;;
2756;SDS011;1386;50.862;6.494;2024-03-17T14:47:37;5.80;;;4.27;;
2756;SDS011;1386;50.862;6.494;2024-03-17T14:50:04;5.97;;;3.60;;
2756;SDS011;1386;50.862;6.494;2024-03-17T14:52:33;11.03;;;4.30;;
2756;SDS011;1386;50.862;6.494;2024-03-17T14:55:00;7.00;;;4.83;;
2756;SDS011;1386;50.862;6.494;2024-03-17T14:57:27;6.13;;;5.10;;
2756;SDS011;1386;50.862;6.494;2024-03-17T14:59:54;4.30;;;3.80;;
2756;SDS011;1386;50.862;6.494;2024-03-17T15:02:21;5.17;;;4.07;;
2756;SDS011;1386;50.862;6.494;2024-03-17T15:04:49;9.60;;;4.63;;
2756;SDS011;1386;50.862;6.494;2024-03-17T15:07:16;7.20;;;4.20;;
2756;SDS011;1386;50.862;6.494;2024-03-17T15:09:45;7.30;;;4.33;;
2756;SDS011;1386;50.862;6.494;2024-03-17T15:12:13;7.13;;;4.67;;
2756;SDS011;1386;50.862;6.494;2024-03-17T15:14:39;6.23;;;4.47;;
2756;SDS011;1386;50.862;6.494;2024-03-17T15:17:06;6.37;;;4.63;;
2756;SDS011;1386;50.862;6.494;2024-03-17T15:19:35;5.13;;;4.63;;
2756;SDS011;1386;50.862;6.494;2024-03-17T15:22:07;7.70;;;4.50;;
2756;SDS011;1386;50.862;6.494;2024-03-17T15:24:34;4.93;;;4.43;;
2756;SDS011;1386;50.862;6.494;2024-03-17T15:27:02;6.03;;;4.40;;
2756;SDS011;1386;50.862;6.494;2024-03-17T15:29:30;6.87;;;4.10;;
2756;SDS011;1386;50.862;6.494;2024-03-17T15:31:57;7.00;;;4.30;;
2756;SDS011;1386;50.862;6.494;2024-03-17T15:34:23;6.50;;;4.10;;
2756;SDS011;1386;50.862;6.494;2024-03-17T15:36:50;6.83;;;3.87;;
2756;SDS011;1386;50.862;6.494;2024-03-17T15:39:17;4.33;;;3.23;;
2756;SDS011;1386;50.862;6.494;2024-03-17T15:41:44;4.10;;;2.97;;
2756;SDS011;1386;50.862;6.494;2024-03-17T15:44:14;3.73;;;2.90;;
2756;SDS011;1386;50.862;6.494;2024-03-17T15:46:41;4.17;;;2.03;;
2756;SDS011;1386;50.862;6.494;2024-03-17T15:49:08;6.30;;;2.63;;
2756;SDS011;1386;50.862;6.494;2024-03-17T15:51:35;2.30;;;1.90;;
2756;SDS011;1386;50.862;6.494;2024-03-17T15:54:02;2.33;;;1.90;;
2756;SDS011;1386;50.862;6.494;2024-03-17T15:56:29;4.83;;;2.00;;
2756;SDS011;1386;50.862;6.494;2024-03-17T15:58:57;3.10;;;2.40;;
2756;SDS011;1386;50.862;6.494;2024-03-17T16:01:25;2.20;;;1.80;;
2756;SDS011;1386;50.862;6.494;2024-03-17T16:03:52;4.80;;;2.10;;
2756;SDS011;1386;50.862;6.494;2024-03-17T16:06:19;4.20;;;2.57;;
2756;SDS011;1386;50.862;6.494;2024-03-17T16:08:47;2.53;;;2.20;;
2756;SDS011;1386;50.862;6.494;2024-03-17T16:11:17;3.73;;;2.83;;
2756;SDS011;1386;50.862;6.494;2024-03-17T16:13:51;4.70;;;2.67;;
2756;SDS011;1386;50.862;6.494;2024-03-17T16:16:22;5.63;;;2.40;;
2756;SDS011;1386;50.862;6.494;2024-03-17T16:18:52;3.80;;;2.60;;
2756;SDS011;1386;50.862;6.494;2024-03-17T16:21:19;5.43;;;2.93;;
2756;SDS011;1386;50.862;6.494;2024-03-17T16:23:48;3.53;;;2.60;;
2756;SDS011;1386;50.862;6.494;2024-03-17T16:26:18;4.13;;;2.90;;
2756;SDS011;1386;50.862;6.494;2024-03-17T16:28:47;3.23;;;2.50;;
2756;SDS011;1386;50.862;6.494;2024-03-17T16:31:15;3.27;;;2.40;;
2756;SDS011;1386;50.862;6.494;2024-03-17T16:33:42;4.90;;;2.37;;
2756;SDS011;1386;50.862;6.494;2024-03-17T16:36:12;3.60;;;2.20;;
2756;SDS011;1386;50.862;6.494;2024-03-17T16:38:39;3.03;;;2.30;;
2756;SDS011;1386;50.862;6.494;2024-03-17T16:41:06;2.63;;;1.83;;
2756;SDS011;1386;50.862;6.494;2024-03-17T16:43:46;3.63;;;2.13;;
2756;SDS011;1386;50.862;6.494;2024-03-17T16:46:28;2.30;;;2.10;;
2756;SDS011;1386;50.862;6.494;2024-03-17T16:49:16;3.40;;;2.47;;
2756;SDS011;1386;50.862;6.494;2024-03-17T16:51:47;3.60;;;2.53;;
2756;SDS011;1386;50.862;6.494;2024-03-17T16:54:16;4.03;;;2.60;;
2756;SDS011;1386;50.862;6.494;2024-03-17T16:56:43;4.13;;;3.00;;
2756;SDS011;1386;50.862;6.494;2024-03-17T16:59:11;6.87;;;4.20;;
2756;SDS011;1386;50.862;6.494;2024-03-17T17:01:38;6.90;;;3.97;;
2756;SDS011;1386;50.862;6.494;2024-03-17T17:04:06;6.63;;;3.50;;
2756;SDS011;1386;50.862;6.494;2024-03-17T17:06:33;5.53;;;3.53;;
2756;SDS011;1386;50.862;6.494;2024-03-17T17:09:02;3.90;;;3.13;;
2756;SDS011;1386;50.862;6.494;2024-03-17T17:11:30;4.73;;;3.77;;
2756;SDS011;1386;50.862;6.494;2024-03-17T17:13:57;3.90;;;3.50;;
2756;SDS011;1386;50.862;6.494;2024-03-17T17:16:24;4.87;;;2.97;;
2756;SDS011;1386;50.862;6.494;2024-03-17T17:18:54;2.90;;;2.70;;
2756;SDS011;1386;50.862;6.494;2024-03-17T17:21:24;2.70;;;2.20;;
2756;SDS011;1386;50.862;6.494;2024-03-17T17:23:52;3.17;;;2.60;;
2756;SDS011;1386;50.862;6.494;2024-03-17T17:26:21;4.00;;;2.03;;
2756;SDS011;1386;50.862;6.494;2024-03-17T17:28:52;2.97;;;2.40;;
2756;SDS011;1386;50.862;6.494;2024-03-17T17:31:22;5.83;;;2.47;;
2756;SDS011;1386;50.862;6.494;2024-03-17T17:33:49;3.43;;;2.40;;
2756;SDS011;1386;50.862;6.494;2024-03-17T17:36:16;2.40;;;2.20;;
2756;SDS011;1386;50.862;6.494;2024-03-17T17:38:43;4.73;;;2.40;;
2756;SDS011;1386;50.862;6.494;2024-03-17T17:41:10;6.10;;;2.57;;
2756;SDS011;1386;50.862;6.494;2024-03-17T17:43:41;3.13;;;2.00;;
2756;SDS011;1386;50.862;6.494;2024-03-17T17:46:07;5.13;;;2.50;;
2756;SDS011;1386;50.862;6.494;2024-03-17T17:48:35;3.70;;;2.63;;
2756;SDS011;1386;50.862;6.494;2024-03-17T17:51:03;2.43;;;2.00;;
2756;SDS011;1386;50.862;6.494;2024-03-17T17:53:31;5.83;;;2.63;;
2756;SDS011;1386;50.862;6.494;2024-03-17T17:55:58;5.40;;;2.40;;
2756;SDS011;1386;50.862;6.494;2024-03-17T17:58:26;5.83;;;2.50;;
2756;SDS011;1386;50.862;6.494;2024-03-17T18:00:58;4.97;;;3.23;;
2756;SDS011;1386;50.862;6.494;2024-03-17T18:03:26;4.50;;;3.40;;
2756;SDS011;1386;50.862;6.494;2024-03-17T18:05:53;3.67;;;3.00;;
2756;SDS011;1386;50.862;6.494;2024-03-17T18:08:20;5.50;;;2.90;;
2756;SDS011;1386;50.862;6.494;2024-03-17T18:10:47;5.13;;;3.63;;
2756;SDS011;1386;50.862;6.494;2024-03-17T18:13:15;5.40;;;3.00;;
2756;SDS011;1386;50.862;6.494;2024-03-17T18:15:42;4.80;;;3.20;;
2756;SDS011;1386;50.862;6.494;2024-03-17T18:18:12;3.60;;;3.13;;
2756;SDS011;1386;50.862;6.494;2024-03-17T18:20:39;4.73;;;3.10;;
2756;SDS011;1386;50.862;6.494;2024-03-17T18:23:06;6.13;;;3.70;;
2756;SDS011;1386;50.862;6.494;2024-03-17T18:25:33;5.03;;;3.13;;
2756;SDS011;1386;50.862;6.494;2024-03-17T18:28:01;5.40;;;3.40;;
2756;SDS011;1386;50.862;6.494;2024-03-17T18:30:28;5.17;;;3.83;;
2756;SDS011;1386;50.862;6.494;2024-03-17T18:32:55;7.43;;;3.90;;
2756;SDS011;1386;50.862;6.494;2024-03-17T18:35:26;7.10;;;4.80;;
2756;SDS011;1386;50.862;6.494;2024-03-17T18:37:55;7.43;;;4.70;;
2756;SDS011;1386;50.862;6.494;2024-03-17T18:40:22;6.23;;;5.00;;
2756;SDS011;1386;50.862;6.494;2024-03-17T18:42:49;6.60;;;3.90;;
2756;SDS011;1386;50.862;6.494;2024-03-17T18:45:17;7.03;;;4.70;;
2756;SDS011;1386;50.862;6.494;2024-03-17T18:47:44;8.03;;;5.50;;
2756;SDS011;1386;50.862;6.494;2024-03-17T18:50:12;4.90;;;3.90;;
2756;SDS011;1386;50.862;6.494;2024-03-17T18:52:40;5.27;;;4.07;;
2756;SDS011;1386;50.862;6.494;2024-03-17T18:55:09;5.00;;;4.40;;
2756;SDS011;1386;50.862;6.494;2024-03-17T18:57:36;11.33;;;4.40;;
2756;SDS011;1386;50.862;6.494;2024-03-17T19:00:04;11.30;;;4.80;;
2756;SDS011;1386;50.862;6.494;2024-03-17T19:02:38;6.60;;;4.20;;
2756;SDS011;1386;50.862;6.494;2024-03-17T19:05:06;5.40;;;3.80;;
2756;SDS011;1386;50.862;6.494;2024-03-17T19:07:35;6.40;;;4.33;;
2756;SDS011;1386;50.862;6.494;2024-03-17T19:10:04;6.10;;;4.07;;
2756;SDS011;1386;50.862;6.494;2024-03-17T19:12:34;8.37;;;4.40;;
2756;SDS011;1386;50.862;6.494;2024-03-17T19:15:02;5.83;;;4.30;;
2756;SDS011;1386;50.862;6.494;2024-03-17T19:17:31;6.23;;;3.93;;
2756;SDS011;1386;50.862;6.494;2024-03-17T19:20:00;7.27;;;4.10;;
2756;SDS011;1386;50.862;6.494;2024-03-17T19:22:31;5.63;;;3.93;;
2756;SDS011;1386;50.862;6.494;2024-03-17T19:25:00;5.50;;;4.00;;
2756;SDS011;1386;50.862;6.494;2024-03-17T19:27:29;6.73;;;4.40;;
2756;SDS011;1386;50.862;6.494;2024-03-17T19:29:56;6.73;;;4.50;;
2756;SDS011;1386;50.862;6.494;2024-03-17T19:32:23;5.80;;;5.07;;
2756;SDS011;1386;50.862;6.494;2024-03-17T19:34:50;6.10;;;4.03;;
2756;SDS011;1386;50.862;6.494;2024-03-17T19:37:18;4.80;;;3.97;;
2756;SDS011;1386;50.862;6.494;2024-03-17T19:39:45;6.63;;;5.13;;
2756;SDS011;1386;50.862;6.494;2024-03-17T19:42:12;7.23;;;4.50;;
2756;SDS011;1386;50.862;6.494;2024-03-17T19:44:42;6.03;;;4.13;;
2756;SDS011;1386;50.862;6.494;2024-03-17T19:47:12;6.70;;;4.70;;
2756;SDS011;1386;50.862;6.494;2024-03-17T19:49:39;8.70;;;5.00;;
2756;SDS011;1386;50.862;6.494;2024-03-17T19:52:06;6.50;;;4.67;;
2756;SDS011;1386;50.862;6.494;2024-03-17T19:54:33;6.00;;;4.73;;
2756;SDS011;1386;50.862;6.494;2024-03-17T19:57:00;6.83;;;5.60;;
2756;SDS011;1386;50.862;6.494;2024-03-17T19:59:27;8.43;;;4.73;;
2756;SDS011;1386;50.862;6.494;2024-03-17T20:01:55;6.97;;;4.20;;
2756;SDS011;1386;50.862;6.494;2024-03-17T20:04:22;5.67;;;4.70;;
2756;SDS011;1386;50.862;6.494;2024-03-17T20:06:49;6.23;;;4.70;;
2756;SDS011;1386;50.862;6.494;2024-03-17T20:09:17;6.93;;;4.43;;
2756;SDS011;1386;50.862;6.494;2024-03-17T20:11:44;11.33;;;6.00;;
2756;SDS011;1386;50.862;6.494;2024-03-17T20:14:11;6.43;;;4.50;;
2756;SDS011;1386;50.862;6.494;2024-03-17T20:16:38;8.60;;;5.97;;
2756;SDS011;1386;50.862;6.494;2024-03-17T20:19:07;7.63;;;4.83;;
2756;SDS011;1386;50.862;6.494;2024-03-17T20:21:36;9.90;;;5.13;;
2756;SDS011;1386;50.862;6.494;2024-03-17T20:24:04;8.60;;;5.30;;
2756;SDS011;1386;50.862;6.494;2024-03-17T20:26:32;5.93;;;4.30;;
2756;SDS011;1386;50.862;6.494;2024-03-17T20:29:01;6.73;;;5.37;;
2756;SDS011;1386;50.862;6.494;2024-03-17T20:31:29;8.67;;;5.30;;
2756;SDS011;1386;50.862;6.494;2024-03-17T20:33:58;8.50;;;5.70;;
2756;SDS011;1386;50.862;6.494;2024-03-17T20:36:26;7.97;;;4.97;;
2756;SDS011;1386;50.862;6.494;2024-03-17T20:38:53;7.87;;;5.00;;
2756;SDS011;1386;50.862;6.494;2024-03-17T20:41:20;7.80;;;5.57;;
2756;SDS011;1386;50.862;6.494;2024-03-17T20:43:47;8.53;;;5.63;;
2756;SDS011;1386;50.862;6.494;2024-03-17T20:46:14;9.30;;;5.47;;
2756;SDS011;1386;50.862;6.494;2024-03-17T20:48:41;8.27;;;5.10;;
2756;SDS011;1386;50.862;6.494;2024-03-17T20:51:08;8.13;;;6.00;;
2756;SDS011;1386;50.862;6.494;2024-03-17T20:53:39;10.77;;;6.70;;
2756;SDS011;1386;50.862;6.494;2024-03-17T20:58:41;7.50;;;5.30;;
2756;SDS011;1386;50.862;6.494;2024-03-17T21:01:10;6.63;;;5.93;;
2756;SDS011;1386;50.862;6.494;2024-03-17T21:03:37;6.30;;;5.43;;
2756;SDS011;1386;50.862;6.494;2024-03-17T21:06:13;9.33;;;6.03;;
2756;SDS011;1386;50.862;6.494;2024-03-17T21:21:39;8.07;;;4.87;;
2756;SDS011;1386;50.862;6.494;2024-03-17T21:34:50;7.50;;;4.40;;
2756;SDS011;1386;50.862;6.494;2024-03-17T21:37:24;6.47;;;4.53;;
2756;SDS011;1386;50.862;6.494;2024-03-17T21:39:54;5.53;;;4.40;;
2756;SDS011;1386;50.862;6.494;2024-03-17T21:42:23;7.83;;;4.70;;
2756;SDS011;1386;50.862;6.494;2024-03-17T21:55:33;7.00;;;4.97;;
2756;SDS011;1386;50.862;6.494;2024-03-17T22:16:24;6.40;;;5.27;;
2756;SDS011;1386;50.862;6.494;2024-03-17T22:26:40;7.43;;;5.40;;
2756;SDS011;1386;50.862;6.494;2024-03-17T22:29:07;6.23;;;4.83;;
2756;SDS011;1386;50.862;6.494;2024-03-17T22:31:49;6.80;;;4.90;;
2756;SDS011;1386;50.862;6.494;2024-03-17T22:34:19;7.03;;;4.80;;
2756;SDS011;1386;50.862;6.494;2024-03-17T22:36:46;5.73;;;4.60;;
2756;SDS011;1386;50.862;6.494;2024-03-17T22:39:27;6.13;;;4.97;;
2756;SDS011;1386;50.862;6.494;2024-03-17T22:41:54;8.07;;;5.87;;
2756;SDS011;1386;50.862;6.494;2024-03-17T22:49:34;8.70;;;5.33;;
2756;SDS011;1386;50.862;6.494;2024-03-17T22:52:01;7.27;;;5.30;;
2756;SDS011;1386;50.862;6.494;2024-03-17T22:54:29;6.30;;;4.77;;
2756;SDS011;1386;50.862;6.494;2024-03-17T22:56:56;7.23;;;4.93;;
2756;SDS011;1386;50.862;6.494;2024-03-17T22:59:24;10.17;;;4.53;;
2756;SDS011;1386;50.862;6.494;2024-03-17T23:01:52;8.03;;;4.80;;
2756;SDS011;1386;50.862;6.494;2024-03-17T23:04:19;6.57;;;4.60;;
2756;SDS011;1386;50.862;6.494;2024-03-17T23:06:48;6.70;;;4.53;;
2756;SDS011;1386;50.862;6.494;2024-03-17T23:09:15;8.60;;;4.87;;
2756;SDS011;1386;50.862;6.494;2024-03-17T23:11:43;5.20;;;4.50;;
2756;SDS011;1386;50.862;6.494;2024-03-17T23:14:10;5.20;;;4.37;;
2756;SDS011;1386;50.862;6.494;2024-03-17T23:16:37;4.63;;;4.00;;
2756;SDS011;1386;50.862;6.494;2024-03-17T23:19:04;9.80;;;4.47;;
2756;SDS011;1386;50.862;6.494;2024-03-17T23:21:31;6.50;;;4.10;;
2756;SDS011;1386;50.862;6.494;2024-03-17T23:24:00;6.43;;;4.20;;
2756;SDS011;1386;50.862;6.494;2024-03-17T23:26:27;5.10;;;3.50;;
2756;SDS011;1386;50.862;6.494;2024-03-17T23:28:54;3.73;;;3.30;;
2756;SDS011;1386;50.862;6.494;2024-03-17T23:31:22;3.70;;;3.10;;
2756;SDS011;1386;50.862;6.494;2024-03-17T23:33:49;4.30;;;3.77;;
2756;SDS011;1386;50.862;6.494;2024-03-17T23:36:16;5.60;;;3.73;;
2756;SDS011;1386;50.862;6.494;2024-03-17T23:38:43;4.30;;;3.50;;
2756;SDS011;1386;50.862;6.494;2024-03-17T23:41:16;3.40;;;2.90;;
2756;SDS011;1386;50.862;6.494;2024-03-17T23:43:43;6.77;;;4.40;;
2756;SDS011;1386;50.862;6.494;2024-03-17T23:46:10;5.60;;;3.80;;
2756;SDS011;1386;50.862;6.494;2024-03-17T23:48:38;5.20;;;3.90;;
2756;SDS011;1386;50.862;6.494;2024-03-17T23:51:05;8.63;;;3.90;;
2756;SDS011;1386;50.862;6.494;2024-03-17T23:53:34;4.63;;;3.90;;
2756;SDS011;1386;50.862;6.494;2024-03-17T23:56:01;5.10;;;4.23;;
2756;SDS011;1386;50.862;6.494;2024-03-17T23:58:30;5.13;;;3.70;;
